Ordway, Colorado
Current Conditions -  °F | °C
As of 8:53 PM on Monday 22 Dec 2014 (Local Time) from KLHX Reporting Station
Overcast Overcast  
Wind Chill: 26°   Ceiling: 5000
Heat Index: 34°   Visibility: 10mi
Dew Point: 29°   Wind: 10mph
Humidity: 82%   Direction: 280°W
Pressure: 29.83"   Gusts: NA
Location:  38.22°N, 103.76°W
Report Text: KLHX 230353Z AUTO 28009KT 10SM OVC050 01/M02 A2983 RMK AO2 SLP101 T00111017
Loading
Personal Weather Stations






























Interactive Weather Map New forecast layout! Learn more

10-Day Weather Forecast

Advertisements
Track Severe Weather on mobile